KBOS/BOS METAR and TAF weather

Enter ICAO airport designator
Station Type Date Time Source
KBOS METAR 2020/07/07 09:54 UTC NOAA

KBOS 070954Z 18004KT 10SM FEW012 BKN065 BKN250 18/17 A3018 RMK AO2 SLP219 T01780167 $


Station Type Date Time Source
KBOS Decoded METAR 2020/07/07 09:54 UTC NOAA

BOSTON LOGAN INTERNATIONAL, MA, United States (KBOS) 42-22N 071-01W 54M
Jul 07, 2020 - 05:54 AM EDT / 2020.07.07 0954 UTC
Wind: from the S (180 degrees) at 5 MPH (4 KT):0
Visibility: 10 mile(s):0
Sky conditions: mostly cloudy
Temperature: 64.0 F (17.8 C)
Dew Point: 62.1 F (16.7 C)
Relative Humidity: 93%
Pressure (altimeter): 30.18 in. Hg (1022 hPa)
ob: KBOS 070954Z 18004KT 10SM FEW012 BKN065 BKN250 18/17 A3018 RMK AO2 SLP219 T01780167
cycle: 10

Station Type Date Time Source
KBOS TAF 2020/07/07 08:21 UTC NOAA

TAF
AMD KBOS 070811Z 0708/0812 14006KT P6SM SCT015 BKN070
FM071300 14009KT P6SM SCT050
FM071600 13010G17KT P6SM SCT050
FM072100 16013KT P6SM SCT050
FM080300 18009KT P6SM BKN045
FM080400 18008KT P6SM BKN030
FM080600 18007KT P6SM BKN010

Example: see airport list